sensor_id;sensor_type;location;lat;lon;timestamp;P1;durP1;ratioP1;P2;durP2;ratioP2
68449;SDS011;55434;39.570;2.652;2022-09-09T00:06:30;9.32;;;2.40;;
68449;SDS011;55434;39.570;2.652;2022-09-09T00:09:04;8.40;;;2.95;;
68449;SDS011;55434;39.570;2.652;2022-09-09T00:11:43;7.78;;;2.63;;
68449;SDS011;55434;39.570;2.652;2022-09-09T00:14:18;11.75;;;2.50;;
68449;SDS011;55434;39.570;2.652;2022-09-09T00:16:59;9.85;;;3.42;;
68449;SDS011;55434;39.570;2.652;2022-09-09T00:19:33;10.38;;;2.80;;
68449;SDS011;55434;39.570;2.652;2022-09-09T00:22:16;8.50;;;2.65;;
68449;SDS011;55434;39.570;2.652;2022-09-09T00:24:49;10.13;;;2.60;;
68449;SDS011;55434;39.570;2.652;2022-09-09T00:27:25;10.02;;;2.40;;
68449;SDS011;55434;39.570;2.652;2022-09-09T00:32:45;9.68;;;2.40;;
68449;SDS011;55434;39.570;2.652;2022-09-09T00:37:44;10.02;;;2.92;;
68449;SDS011;55434;39.570;2.652;2022-09-09T00:40:34;8.50;;;2.28;;
68449;SDS011;55434;39.570;2.652;2022-09-09T00:43:24;7.28;;;2.17;;
68449;SDS011;55434;39.570;2.652;2022-09-09T00:46:07;12.02;;;2.58;;
68449;SDS011;55434;39.570;2.652;2022-09-09T00:51:27;9.13;;;2.30;;
68449;SDS011;55434;39.570;2.652;2022-09-09T00:57:00;7.45;;;2.28;;
68449;SDS011;55434;39.570;2.652;2022-09-09T00:59:52;9.40;;;2.78;;
68449;SDS011;55434;39.570;2.652;2022-09-09T01:08:01;7.65;;;2.55;;
68449;SDS011;55434;39.570;2.652;2022-09-09T01:10:43;9.27;;;2.78;;
68449;SDS011;55434;39.570;2.652;2022-09-09T01:13:16;10.70;;;2.72;;
68449;SDS011;55434;39.570;2.652;2022-09-09T01:15:59;8.25;;;3.30;;
68449;SDS011;55434;39.570;2.652;2022-09-09T01:18:28;12.23;;;2.75;;
68449;SDS011;55434;39.570;2.652;2022-09-09T01:21:22;8.63;;;2.95;;
68449;SDS011;55434;39.570;2.652;2022-09-09T01:26:43;8.77;;;2.42;;
68449;SDS011;55434;39.570;2.652;2022-09-09T01:29:14;9.48;;;2.45;;
68449;SDS011;55434;39.570;2.652;2022-09-09T01:31:51;7.72;;;2.42;;
68449;SDS011;55434;39.570;2.652;2022-09-09T01:34:23;11.73;;;3.00;;
68449;SDS011;55434;39.570;2.652;2022-09-09T01:39:21;10.32;;;2.80;;
68449;SDS011;55434;39.570;2.652;2022-09-09T01:41:47;8.87;;;2.53;;
68449;SDS011;55434;39.570;2.652;2022-09-09T01:44:12;6.13;;;2.08;;
68449;SDS011;55434;39.570;2.652;2022-09-09T01:46:38;8.45;;;2.70;;
68449;SDS011;55434;39.570;2.652;2022-09-09T01:49:05;9.07;;;2.90;;
68449;SDS011;55434;39.570;2.652;2022-09-09T01:51:33;6.97;;;2.50;;
68449;SDS011;55434;39.570;2.652;2022-09-09T01:54:00;13.55;;;3.20;;
68449;SDS011;55434;39.570;2.652;2022-09-09T02:02:08;9.68;;;2.40;;
68449;SDS011;55434;39.570;2.652;2022-09-09T02:04:44;9.43;;;2.90;;
68449;SDS011;55434;39.570;2.652;2022-09-09T02:09:57;6.75;;;2.63;;
68449;SDS011;55434;39.570;2.652;2022-09-09T02:12:38;9.27;;;2.80;;
68449;SDS011;55434;39.570;2.652;2022-09-09T02:15:17;9.40;;;2.58;;
68449;SDS011;55434;39.570;2.652;2022-09-09T02:17:54;11.85;;;2.78;;
68449;SDS011;55434;39.570;2.652;2022-09-09T02:20:27;11.93;;;2.97;;
68449;SDS011;55434;39.570;2.652;2022-09-09T02:23:00;8.27;;;3.00;;
68449;SDS011;55434;39.570;2.652;2022-09-09T02:25:28;7.93;;;2.47;;
68449;SDS011;55434;39.570;2.652;2022-09-09T02:27:57;10.57;;;2.20;;
68449;SDS011;55434;39.570;2.652;2022-09-09T02:30:27;9.07;;;2.90;;
68449;SDS011;55434;39.570;2.652;2022-09-09T02:32:55;10.63;;;2.58;;
68449;SDS011;55434;39.570;2.652;2022-09-09T02:35:23;10.15;;;2.78;;
68449;SDS011;55434;39.570;2.652;2022-09-09T02:37:51;7.10;;;2.37;;
68449;SDS011;55434;39.570;2.652;2022-09-09T02:40:20;7.47;;;2.28;;
68449;SDS011;55434;39.570;2.652;2022-09-09T02:42:47;10.82;;;3.22;;
68449;SDS011;55434;39.570;2.652;2022-09-09T02:45:16;8.80;;;2.50;;
68449;SDS011;55434;39.570;2.652;2022-09-09T02:53:16;7.38;;;2.83;;
68449;SDS011;55434;39.570;2.652;2022-09-09T02:56:37;8.88;;;2.50;;
68449;SDS011;55434;39.570;2.652;2022-09-09T02:58:45;6.28;;;2.25;;
68449;SDS011;55434;39.570;2.652;2022-09-09T03:01:12;14.75;;;3.28;;
68449;SDS011;55434;39.570;2.652;2022-09-09T03:03:39;8.20;;;3.00;;
68449;SDS011;55434;39.570;2.652;2022-09-09T03:06:06;8.48;;;2.80;;
68449;SDS011;55434;39.570;2.652;2022-09-09T03:08:37;8.00;;;2.70;;
68449;SDS011;55434;39.570;2.652;2022-09-09T03:11:03;7.88;;;2.42;;
68449;SDS011;55434;39.570;2.652;2022-09-09T03:13:29;7.00;;;2.28;;
68449;SDS011;55434;39.570;2.652;2022-09-09T03:15:55;7.17;;;2.30;;
68449;SDS011;55434;39.570;2.652;2022-09-09T03:18:21;9.15;;;2.30;;
68449;SDS011;55434;39.570;2.652;2022-09-09T03:20:48;6.88;;;2.55;;
68449;SDS011;55434;39.570;2.652;2022-09-09T03:23:14;12.93;;;2.47;;
68449;SDS011;55434;39.570;2.652;2022-09-09T03:25:46;10.18;;;2.60;;
68449;SDS011;55434;39.570;2.652;2022-09-09T03:28:13;7.80;;;2.80;;
68449;SDS011;55434;39.570;2.652;2022-09-09T03:30:39;9.82;;;3.10;;
68449;SDS011;55434;39.570;2.652;2022-09-09T03:33:04;10.50;;;2.90;;
68449;SDS011;55434;39.570;2.652;2022-09-09T03:35:30;8.77;;;2.67;;
68449;SDS011;55434;39.570;2.652;2022-09-09T03:37:56;13.33;;;2.70;;
68449;SDS011;55434;39.570;2.652;2022-09-09T03:40:22;8.88;;;2.83;;
68449;SDS011;55434;39.570;2.652;2022-09-09T03:42:48;7.23;;;2.20;;
68449;SDS011;55434;39.570;2.652;2022-09-09T03:45:14;7.65;;;2.47;;
68449;SDS011;55434;39.570;2.652;2022-09-09T03:47:39;11.23;;;3.10;;
68449;SDS011;55434;39.570;2.652;2022-09-09T03:50:06;6.77;;;2.57;;
68449;SDS011;55434;39.570;2.652;2022-09-09T03:52:35;7.57;;;2.80;;
68449;SDS011;55434;39.570;2.652;2022-09-09T03:55:05;12.27;;;3.08;;
68449;SDS011;55434;39.570;2.652;2022-09-09T03:57:32;8.05;;;2.47;;
68449;SDS011;55434;39.570;2.652;2022-09-09T04:00:01;10.95;;;2.70;;
68449;SDS011;55434;39.570;2.652;2022-09-09T04:02:32;7.00;;;2.67;;
68449;SDS011;55434;39.570;2.652;2022-09-09T04:04:58;11.13;;;2.63;;
68449;SDS011;55434;39.570;2.652;2022-09-09T04:07:24;10.82;;;2.70;;
68449;SDS011;55434;39.570;2.652;2022-09-09T04:09:52;7.97;;;3.03;;
68449;SDS011;55434;39.570;2.652;2022-09-09T04:12:19;13.85;;;3.20;;
68449;SDS011;55434;39.570;2.652;2022-09-09T04:14:46;9.77;;;2.53;;
68449;SDS011;55434;39.570;2.652;2022-09-09T04:17:12;9.75;;;2.75;;
68449;SDS011;55434;39.570;2.652;2022-09-09T04:19:37;11.23;;;2.80;;
68449;SDS011;55434;39.570;2.652;2022-09-09T04:22:03;12.30;;;2.67;;
68449;SDS011;55434;39.570;2.652;2022-09-09T04:24:29;10.25;;;2.90;;
68449;SDS011;55434;39.570;2.652;2022-09-09T04:26:55;8.47;;;2.97;;
68449;SDS011;55434;39.570;2.652;2022-09-09T04:29:20;10.85;;;2.83;;
68449;SDS011;55434;39.570;2.652;2022-09-09T04:31:46;12.57;;;2.70;;
68449;SDS011;55434;39.570;2.652;2022-09-09T04:34:12;8.85;;;2.67;;
68449;SDS011;55434;39.570;2.652;2022-09-09T04:36:38;10.50;;;2.53;;
68449;SDS011;55434;39.570;2.652;2022-09-09T04:39:05;8.95;;;2.65;;
68449;SDS011;55434;39.570;2.652;2022-09-09T04:41:31;10.65;;;2.90;;
68449;SDS011;55434;39.570;2.652;2022-09-09T04:43:57;9.77;;;2.83;;
68449;SDS011;55434;39.570;2.652;2022-09-09T04:46:24;12.07;;;2.88;;
68449;SDS011;55434;39.570;2.652;2022-09-09T04:48:50;10.10;;;2.92;;
68449;SDS011;55434;39.570;2.652;2022-09-09T04:51:17;11.60;;;3.38;;
68449;SDS011;55434;39.570;2.652;2022-09-09T04:53:43;11.32;;;3.33;;
68449;SDS011;55434;39.570;2.652;2022-09-09T04:56:11;12.00;;;2.88;;
68449;SDS011;55434;39.570;2.652;2022-09-09T04:58:39;8.40;;;3.03;;
68449;SDS011;55434;39.570;2.652;2022-09-09T05:01:12;12.65;;;3.53;;
68449;SDS011;55434;39.570;2.652;2022-09-09T05:03:40;8.32;;;2.90;;
68449;SDS011;55434;39.570;2.652;2022-09-09T05:06:10;10.55;;;3.17;;
68449;SDS011;55434;39.570;2.652;2022-09-09T05:08:38;14.82;;;3.05;;
68449;SDS011;55434;39.570;2.652;2022-09-09T05:11:15;10.18;;;3.88;;
68449;SDS011;55434;39.570;2.652;2022-09-09T05:13:41;11.95;;;3.20;;
68449;SDS011;55434;39.570;2.652;2022-09-09T05:16:07;15.43;;;3.85;;
68449;SDS011;55434;39.570;2.652;2022-09-09T05:18:36;8.82;;;2.92;;
68449;SDS011;55434;39.570;2.652;2022-09-09T05:21:06;9.97;;;3.13;;
68449;SDS011;55434;39.570;2.652;2022-09-09T05:23:33;11.10;;;3.40;;
68449;SDS011;55434;39.570;2.652;2022-09-09T05:25:59;10.82;;;3.40;;
68449;SDS011;55434;39.570;2.652;2022-09-09T05:28:26;12.80;;;3.80;;
68449;SDS011;55434;39.570;2.652;2022-09-09T05:31:02;13.90;;;4.10;;
68449;SDS011;55434;39.570;2.652;2022-09-09T05:33:30;13.10;;;3.13;;
68449;SDS011;55434;39.570;2.652;2022-09-09T05:36:04;16.98;;;3.88;;
68449;SDS011;55434;39.570;2.652;2022-09-09T05:38:38;10.52;;;3.58;;
68449;SDS011;55434;39.570;2.652;2022-09-09T05:41:04;13.60;;;3.67;;
68449;SDS011;55434;39.570;2.652;2022-09-09T05:43:30;11.65;;;3.55;;
68449;SDS011;55434;39.570;2.652;2022-09-09T05:48:34;11.77;;;3.38;;
68449;SDS011;55434;39.570;2.652;2022-09-09T05:51:05;12.30;;;3.35;;
68449;SDS011;55434;39.570;2.652;2022-09-09T05:53:33;13.05;;;3.72;;
68449;SDS011;55434;39.570;2.652;2022-09-09T05:56:03;8.15;;;3.50;;
68449;SDS011;55434;39.570;2.652;2022-09-09T05:58:31;17.77;;;4.10;;
68449;SDS011;55434;39.570;2.652;2022-09-09T06:01:04;16.27;;;3.92;;
68449;SDS011;55434;39.570;2.652;2022-09-09T06:03:35;13.05;;;4.20;;
68449;SDS011;55434;39.570;2.652;2022-09-09T06:06:03;15.73;;;3.90;;
68449;SDS011;55434;39.570;2.652;2022-09-09T06:08:31;17.52;;;3.85;;
68449;SDS011;55434;39.570;2.652;2022-09-09T06:11:03;12.23;;;3.45;;
68449;SDS011;55434;39.570;2.652;2022-09-09T06:13:33;15.25;;;3.70;;
68449;SDS011;55434;39.570;2.652;2022-09-09T06:16:00;16.83;;;3.90;;
68449;SDS011;55434;39.570;2.652;2022-09-09T06:18:26;17.58;;;5.55;;
68449;SDS011;55434;39.570;2.652;2022-09-09T06:20:53;24.23;;;4.53;;
68449;SDS011;55434;39.570;2.652;2022-09-09T06:23:20;23.00;;;5.73;;
68449;SDS011;55434;39.570;2.652;2022-09-09T06:28:58;35.60;;;5.88;;
68449;SDS011;55434;39.570;2.652;2022-09-09T06:31:26;34.47;;;8.15;;
68449;SDS011;55434;39.570;2.652;2022-09-09T06:33:55;23.92;;;4.82;;
68449;SDS011;55434;39.570;2.652;2022-09-09T06:36:28;26.23;;;5.45;;
68449;SDS011;55434;39.570;2.652;2022-09-09T06:38:59;60.40;;;7.78;;
68449;SDS011;55434;39.570;2.652;2022-09-09T06:41:29;34.60;;;5.40;;
68449;SDS011;55434;39.570;2.652;2022-09-09T06:43:56;23.05;;;4.32;;
68449;SDS011;55434;39.570;2.652;2022-09-09T06:46:23;25.83;;;5.18;;
68449;SDS011;55434;39.570;2.652;2022-09-09T06:48:53;21.15;;;4.15;;
68449;SDS011;55434;39.570;2.652;2022-09-09T06:51:21;19.98;;;5.18;;
68449;SDS011;55434;39.570;2.652;2022-09-09T06:53:52;21.52;;;5.40;;
68449;SDS011;55434;39.570;2.652;2022-09-09T06:56:23;18.88;;;4.35;;
68449;SDS011;55434;39.570;2.652;2022-09-09T06:58:53;17.75;;;4.00;;
68449;SDS011;55434;39.570;2.652;2022-09-09T07:01:29;15.68;;;4.15;;
68449;SDS011;55434;39.570;2.652;2022-09-09T07:04:03;15.63;;;4.57;;
68449;SDS011;55434;39.570;2.652;2022-09-09T07:06:33;18.55;;;4.88;;
68449;SDS011;55434;39.570;2.652;2022-09-09T07:09:04;17.23;;;4.60;;
68449;SDS011;55434;39.570;2.652;2022-09-09T07:11:41;16.55;;;4.57;;
68449;SDS011;55434;39.570;2.652;2022-09-09T07:14:09;14.88;;;4.53;;
68449;SDS011;55434;39.570;2.652;2022-09-09T07:16:40;12.20;;;4.53;;
68449;SDS011;55434;39.570;2.652;2022-09-09T07:19:07;18.33;;;4.80;;
68449;SDS011;55434;39.570;2.652;2022-09-09T07:21:33;13.52;;;4.00;;
68449;SDS011;55434;39.570;2.652;2022-09-09T07:23:59;13.75;;;4.65;;
68449;SDS011;55434;39.570;2.652;2022-09-09T07:26:26;15.27;;;4.20;;
68449;SDS011;55434;39.570;2.652;2022-09-09T07:28:54;11.77;;;4.28;;
68449;SDS011;55434;39.570;2.652;2022-09-09T07:31:30;10.38;;;4.10;;
68449;SDS011;55434;39.570;2.652;2022-09-09T07:33:58;14.82;;;5.22;;
68449;SDS011;55434;39.570;2.652;2022-09-09T07:36:28;11.63;;;4.70;;
68449;SDS011;55434;39.570;2.652;2022-09-09T07:38:56;11.57;;;4.00;;
68449;SDS011;55434;39.570;2.652;2022-09-09T07:41:35;15.80;;;4.00;;
68449;SDS011;55434;39.570;2.652;2022-09-09T07:44:07;11.98;;;4.00;;
68449;SDS011;55434;39.570;2.652;2022-09-09T07:46:36;11.45;;;3.72;;
68449;SDS011;55434;39.570;2.652;2022-09-09T07:49:04;12.23;;;3.53;;
68449;SDS011;55434;39.570;2.652;2022-09-09T07:51:34;13.88;;;3.53;;
68449;SDS011;55434;39.570;2.652;2022-09-09T07:54:02;13.48;;;3.78;;
68449;SDS011;55434;39.570;2.652;2022-09-09T07:56:30;14.90;;;3.33;;
68449;SDS011;55434;39.570;2.652;2022-09-09T07:58:56;12.43;;;3.20;;
68449;SDS011;55434;39.570;2.652;2022-09-09T08:01:26;10.77;;;3.05;;
68449;SDS011;55434;39.570;2.652;2022-09-09T08:04:02;14.13;;;4.05;;
68449;SDS011;55434;39.570;2.652;2022-09-09T08:06:34;11.57;;;3.22;;
68449;SDS011;55434;39.570;2.652;2022-09-09T08:09:02;11.02;;;3.22;;
68449;SDS011;55434;39.570;2.652;2022-09-09T08:11:28;11.50;;;3.40;;
68449;SDS011;55434;39.570;2.652;2022-09-09T08:13:55;14.85;;;3.30;;
68449;SDS011;55434;39.570;2.652;2022-09-09T08:16:26;11.98;;;3.80;;
68449;SDS011;55434;39.570;2.652;2022-09-09T08:18:55;16.80;;;5.22;;
68449;SDS011;55434;39.570;2.652;2022-09-09T08:21:22;15.37;;;3.97;;
68449;SDS011;55434;39.570;2.652;2022-09-09T08:23:50;10.73;;;3.80;;
68449;SDS011;55434;39.570;2.652;2022-09-09T08:26:18;11.43;;;3.95;;
68449;SDS011;55434;39.570;2.652;2022-09-09T08:28:49;10.93;;;3.45;;
68449;SDS011;55434;39.570;2.652;2022-09-09T08:31:19;12.18;;;4.03;;
68449;SDS011;55434;39.570;2.652;2022-09-09T08:33:48;13.57;;;3.53;;
68449;SDS011;55434;39.570;2.652;2022-09-09T08:36:15;13.80;;;4.30;;
68449;SDS011;55434;39.570;2.652;2022-09-09T08:38:51;13.27;;;3.75;;
68449;SDS011;55434;39.570;2.652;2022-09-09T08:47:23;14.50;;;3.93;;
68449;SDS011;55434;39.570;2.652;2022-09-09T08:50:25;12.07;;;4.07;;
68449;SDS011;55434;39.570;2.652;2022-09-09T08:58:41;13.05;;;3.50;;
68449;SDS011;55434;39.570;2.652;2022-09-09T09:01:25;14.80;;;4.33;;
68449;SDS011;55434;39.570;2.652;2022-09-09T09:12:18;8.68;;;3.90;;
68449;SDS011;55434;39.570;2.652;2022-09-09T09:14:49;10.13;;;3.73;;
68449;SDS011;55434;39.570;2.652;2022-09-09T09:17:35;11.15;;;3.15;;
68449;SDS011;55434;39.570;2.652;2022-09-09T09:20:11;12.63;;;3.70;;
68449;SDS011;55434;39.570;2.652;2022-09-09T09:28:22;10.07;;;3.37;;
68449;SDS011;55434;39.570;2.652;2022-09-09T09:30:53;11.43;;;2.78;;
68449;SDS011;55434;39.570;2.652;2022-09-09T09:35:57;9.32;;;3.10;;
68449;SDS011;55434;39.570;2.652;2022-09-09T09:38:27;15.40;;;3.20;;
68449;SDS011;55434;39.570;2.652;2022-09-09T09:40:55;11.17;;;3.10;;
68449;SDS011;55434;39.570;2.652;2022-09-09T09:45:58;14.95;;;4.72;;
68449;SDS011;55434;39.570;2.652;2022-09-09T09:48:25;12.60;;;3.40;;
68449;SDS011;55434;39.570;2.652;2022-09-09T09:50:54;10.30;;;3.25;;
68449;SDS011;55434;39.570;2.652;2022-09-09T09:53:26;8.73;;;3.00;;
68449;SDS011;55434;39.570;2.652;2022-09-09T09:56:05;11.73;;;3.53;;
68449;SDS011;55434;39.570;2.652;2022-09-09T09:58:48;13.70;;;4.68;;
68449;SDS011;55434;39.570;2.652;2022-09-09T10:01:32;12.82;;;3.50;;
68449;SDS011;55434;39.570;2.652;2022-09-09T10:04:17;11.18;;;3.45;;
68449;SDS011;55434;39.570;2.652;2022-09-09T10:06:49;9.53;;;2.53;;
68449;SDS011;55434;39.570;2.652;2022-09-09T10:11:55;11.55;;;3.83;;
68449;SDS011;55434;39.570;2.652;2022-09-09T10:17:22;13.32;;;3.88;;
68449;SDS011;55434;39.570;2.652;2022-09-09T10:22:38;14.85;;;3.50;;
68449;SDS011;55434;39.570;2.652;2022-09-09T10:30:23;15.25;;;3.88;;
68449;SDS011;55434;39.570;2.652;2022-09-09T10:33:10;15.03;;;3.50;;
68449;SDS011;55434;39.570;2.652;2022-09-09T10:41:07;14.82;;;5.15;;
68449;SDS011;55434;39.570;2.652;2022-09-09T10:43:52;13.70;;;5.03;;
68449;SDS011;55434;39.570;2.652;2022-09-09T10:55:02;14.35;;;5.68;;
68449;SDS011;55434;39.570;2.652;2022-09-09T11:00:05;11.77;;;5.63;;
68449;SDS011;55434;39.570;2.652;2022-09-09T11:02:39;10.82;;;6.00;;
68449;SDS011;55434;39.570;2.652;2022-09-09T11:08:27;9.57;;;4.90;;
68449;SDS011;55434;39.570;2.652;2022-09-09T11:11:03;12.18;;;5.60;;
68449;SDS011;55434;39.570;2.652;2022-09-09T11:17:00;13.43;;;5.82;;
68449;SDS011;55434;39.570;2.652;2022-09-09T11:19:17;11.18;;;5.50;;
68449;SDS011;55434;39.570;2.652;2022-09-09T11:24:57;13.13;;;5.60;;
68449;SDS011;55434;39.570;2.652;2022-09-09T11:27:32;12.85;;;6.18;;
68449;SDS011;55434;39.570;2.652;2022-09-09T11:30:18;13.15;;;5.93;;
68449;SDS011;55434;39.570;2.652;2022-09-09T11:38:38;19.97;;;7.03;;
68449;SDS011;55434;39.570;2.652;2022-09-09T11:41:05;18.63;;;6.95;;
68449;SDS011;55434;39.570;2.652;2022-09-09T11:43:48;11.27;;;6.25;;
68449;SDS011;55434;39.570;2.652;2022-09-09T11:46:40;13.95;;;5.65;;
68449;SDS011;55434;39.570;2.652;2022-09-09T11:49:21;8.73;;;5.20;;
68449;SDS011;55434;39.570;2.652;2022-09-09T11:51:53;11.23;;;5.83;;
68449;SDS011;55434;39.570;2.652;2022-09-09T11:54:30;10.50;;;5.72;;
68449;SDS011;55434;39.570;2.652;2022-09-09T11:56:57;10.38;;;5.90;;
68449;SDS011;55434;39.570;2.652;2022-09-09T11:59:25;10.77;;;5.78;;
68449;SDS011;55434;39.570;2.652;2022-09-09T12:02:03;10.25;;;6.13;;
68449;SDS011;55434;39.570;2.652;2022-09-09T12:05:15;13.90;;;5.43;;
68449;SDS011;55434;39.570;2.652;2022-09-09T12:07:51;9.65;;;4.88;;
68449;SDS011;55434;39.570;2.652;2022-09-09T12:10:28;13.88;;;5.47;;
68449;SDS011;55434;39.570;2.652;2022-09-09T12:13:17;11.38;;;5.55;;
68449;SDS011;55434;39.570;2.652;2022-09-09T12:15:52;9.60;;;5.13;;
68449;SDS011;55434;39.570;2.652;2022-09-09T12:18:23;11.40;;;5.20;;
68449;SDS011;55434;39.570;2.652;2022-09-09T12:24:41;9.73;;;4.97;;
68449;SDS011;55434;39.570;2.652;2022-09-09T12:27:28;14.68;;;6.47;;
68449;SDS011;55434;39.570;2.652;2022-09-09T12:30:12;10.68;;;5.22;;
68449;SDS011;55434;39.570;2.652;2022-09-09T12:33:01;10.87;;;5.73;;
68449;SDS011;55434;39.570;2.652;2022-09-09T12:35:33;10.15;;;5.30;;
68449;SDS011;55434;39.570;2.652;2022-09-09T12:38:03;10.15;;;5.85;;
68449;SDS011;55434;39.570;2.652;2022-09-09T12:40:33;8.93;;;5.32;;
68449;SDS011;55434;39.570;2.652;2022-09-09T12:43:20;11.00;;;5.63;;
68449;SDS011;55434;39.570;2.652;2022-09-09T12:45:48;10.83;;;5.00;;
68449;SDS011;55434;39.570;2.652;2022-09-09T12:48:17;6.28;;;4.07;;
68449;SDS011;55434;39.570;2.652;2022-09-09T12:50:47;12.20;;;6.30;;
68449;SDS011;55434;39.570;2.652;2022-09-09T12:53:25;11.93;;;6.47;;
68449;SDS011;55434;39.570;2.652;2022-09-09T12:56:03;15.43;;;6.18;;
68449;SDS011;55434;39.570;2.652;2022-09-09T12:58:36;11.27;;;5.23;;
68449;SDS011;55434;39.570;2.652;2022-09-09T13:01:03;8.70;;;4.38;;
68449;SDS011;55434;39.570;2.652;2022-09-09T13:03:31;10.80;;;5.60;;
68449;SDS011;55434;39.570;2.652;2022-09-09T13:06:09;9.05;;;5.38;;
68449;SDS011;55434;39.570;2.652;2022-09-09T13:08:40;8.85;;;5.88;;
68449;SDS011;55434;39.570;2.652;2022-09-09T13:11:10;7.77;;;5.63;;
68449;SDS011;55434;39.570;2.652;2022-09-09T13:13:42;13.10;;;4.85;;
68449;SDS011;55434;39.570;2.652;2022-09-09T13:16:19;9.38;;;5.25;;
68449;SDS011;55434;39.570;2.652;2022-09-09T13:18:59;10.13;;;6.05;;
68449;SDS011;55434;39.570;2.652;2022-09-09T13:21:31;9.75;;;5.53;;
68449;SDS011;55434;39.570;2.652;2022-09-09T13:24:03;11.30;;;5.73;;
68449;SDS011;55434;39.570;2.652;2022-09-09T13:26:33;15.20;;;5.63;;
68449;SDS011;55434;39.570;2.652;2022-09-09T13:29:15;13.73;;;5.97;;
68449;SDS011;55434;39.570;2.652;2022-09-09T13:31:45;12.75;;;4.78;;
68449;SDS011;55434;39.570;2.652;2022-09-09T13:34:31;11.75;;;5.05;;
68449;SDS011;55434;39.570;2.652;2022-09-09T13:37:05;14.30;;;5.23;;
68449;SDS011;55434;39.570;2.652;2022-09-09T13:53:42;13.18;;;4.72;;
68449;SDS011;55434;39.570;2.652;2022-09-09T13:56:34;42.65;;;11.02;;
68449;SDS011;55434;39.570;2.652;2022-09-09T13:59:14;7.30;;;3.55;;
68449;SDS011;55434;39.570;2.652;2022-09-09T14:01:41;9.65;;;3.67;;
68449;SDS011;55434;39.570;2.652;2022-09-09T14:04:07;9.27;;;2.97;;
68449;SDS011;55434;39.570;2.652;2022-09-09T14:06:34;11.52;;;3.80;;
68449;SDS011;55434;39.570;2.652;2022-09-09T14:09:03;8.90;;;3.28;;
68449;SDS011;55434;39.570;2.652;2022-09-09T14:11:30;9.75;;;3.63;;
68449;SDS011;55434;39.570;2.652;2022-09-09T14:13:59;9.13;;;3.35;;
68449;SDS011;55434;39.570;2.652;2022-09-09T14:16:26;8.52;;;3.13;;
68449;SDS011;55434;39.570;2.652;2022-09-09T14:18:53;8.60;;;3.80;;
68449;SDS011;55434;39.570;2.652;2022-09-09T14:21:18;9.52;;;3.28;;
68449;SDS011;55434;39.570;2.652;2022-09-09T14:23:44;9.07;;;3.10;;
68449;SDS011;55434;39.570;2.652;2022-09-09T14:26:10;8.15;;;3.72;;
68449;SDS011;55434;39.570;2.652;2022-09-09T14:28:36;6.60;;;3.07;;
68449;SDS011;55434;39.570;2.652;2022-09-09T14:31:03;15.15;;;3.40;;
68449;SDS011;55434;39.570;2.652;2022-09-09T14:33:33;9.48;;;3.75;;
68449;SDS011;55434;39.570;2.652;2022-09-09T14:36:01;7.75;;;3.22;;
68449;SDS011;55434;39.570;2.652;2022-09-09T14:38:28;9.52;;;4.05;;
68449;SDS011;55434;39.570;2.652;2022-09-09T14:40:55;11.60;;;4.83;;
68449;SDS011;55434;39.570;2.652;2022-09-09T14:43:21;11.18;;;4.72;;
68449;SDS011;55434;39.570;2.652;2022-09-09T14:45:47;11.40;;;5.03;;
68449;SDS011;55434;39.570;2.652;2022-09-09T14:48:16;11.98;;;4.88;;
68449;SDS011;55434;39.570;2.652;2022-09-09T14:50:42;9.40;;;5.60;;
68449;SDS011;55434;39.570;2.652;2022-09-09T14:53:08;12.73;;;4.05;;
68449;SDS011;55434;39.570;2.652;2022-09-09T14:55:35;8.18;;;4.85;;
68449;SDS011;55434;39.570;2.652;2022-09-09T14:58:09;9.05;;;4.25;;
68449;SDS011;55434;39.570;2.652;2022-09-09T15:00:44;6.88;;;4.20;;
68449;SDS011;55434;39.570;2.652;2022-09-09T15:03:10;8.03;;;3.50;;
68449;SDS011;55434;39.570;2.652;2022-09-09T15:05:36;7.80;;;3.65;;
68449;SDS011;55434;39.570;2.652;2022-09-09T15:08:04;7.35;;;3.75;;
68449;SDS011;55434;39.570;2.652;2022-09-09T15:10:31;7.50;;;3.17;;
68449;SDS011;55434;39.570;2.652;2022-09-09T15:13:02;8.27;;;3.70;;
68449;SDS011;55434;39.570;2.652;2022-09-09T15:15:40;7.38;;;3.15;;
68449;SDS011;55434;39.570;2.652;2022-09-09T15:20:48;8.90;;;4.07;;
68449;SDS011;55434;39.570;2.652;2022-09-09T15:23:14;5.85;;;3.28;;
68449;SDS011;55434;39.570;2.652;2022-09-09T15:25:52;6.13;;;3.15;;
68449;SDS011;55434;39.570;2.652;2022-09-09T15:28:19;8.95;;;2.80;;
68449;SDS011;55434;39.570;2.652;2022-09-09T15:30:49;8.20;;;2.47;;
68449;SDS011;55434;39.570;2.652;2022-09-09T15:33:22;8.30;;;3.47;;
68449;SDS011;55434;39.570;2.652;2022-09-09T15:35:53;13.45;;;3.33;;
68449;SDS011;55434;39.570;2.652;2022-09-09T15:38:19;8.68;;;3.05;;
68449;SDS011;55434;39.570;2.652;2022-09-09T15:40:52;10.17;;;2.97;;
68449;SDS011;55434;39.570;2.652;2022-09-09T15:43:19;8.57;;;3.08;;
68449;SDS011;55434;39.570;2.652;2022-09-09T15:45:46;9.15;;;3.00;;
68449;SDS011;55434;39.570;2.652;2022-09-09T15:48:17;10.98;;;3.38;;
68449;SDS011;55434;39.570;2.652;2022-09-09T15:50:47;10.25;;;3.10;;
68449;SDS011;55434;39.570;2.652;2022-09-09T15:53:28;8.23;;;2.97;;
68449;SDS011;55434;39.570;2.652;2022-09-09T15:55:55;7.75;;;2.67;;
68449;SDS011;55434;39.570;2.652;2022-09-09T15:58:23;8.15;;;3.40;;
68449;SDS011;55434;39.570;2.652;2022-09-09T16:00:48;11.83;;;2.90;;
68449;SDS011;55434;39.570;2.652;2022-09-09T16:03:14;10.45;;;3.42;;
68449;SDS011;55434;39.570;2.652;2022-09-09T16:05:58;7.75;;;3.22;;
68449;SDS011;55434;39.570;2.652;2022-09-09T16:08:25;11.60;;;3.33;;
68449;SDS011;55434;39.570;2.652;2022-09-09T16:11:09;10.20;;;2.90;;
68449;SDS011;55434;39.570;2.652;2022-09-09T16:13:38;10.80;;;3.00;;
68449;SDS011;55434;39.570;2.652;2022-09-09T16:16:05;8.20;;;2.90;;
68449;SDS011;55434;39.570;2.652;2022-09-09T16:18:48;11.82;;;2.63;;
68449;SDS011;55434;39.570;2.652;2022-09-09T16:21:18;7.63;;;2.80;;
68449;SDS011;55434;39.570;2.652;2022-09-09T16:23:49;7.10;;;2.60;;
68449;SDS011;55434;39.570;2.652;2022-09-09T16:26:17;8.18;;;2.63;;
68449;SDS011;55434;39.570;2.652;2022-09-09T16:28:43;8.13;;;3.22;;
68449;SDS011;55434;39.570;2.652;2022-09-09T16:31:13;10.07;;;3.88;;
68449;SDS011;55434;39.570;2.652;2022-09-09T16:33:43;10.05;;;3.40;;
68449;SDS011;55434;39.570;2.652;2022-09-09T16:36:14;8.97;;;3.37;;
68449;SDS011;55434;39.570;2.652;2022-09-09T16:38:42;7.95;;;3.65;;
68449;SDS011;55434;39.570;2.652;2022-09-09T16:41:08;8.57;;;3.40;;
68449;SDS011;55434;39.570;2.652;2022-09-09T16:43:35;7.95;;;3.17;;
68449;SDS011;55434;39.570;2.652;2022-09-09T16:46:18;11.15;;;4.32;;
68449;SDS011;55434;39.570;2.652;2022-09-09T16:48:46;9.73;;;4.57;;
68449;SDS011;55434;39.570;2.652;2022-09-09T16:51:19;8.15;;;4.30;;
68449;SDS011;55434;39.570;2.652;2022-09-09T16:53:50;11.27;;;4.60;;
68449;SDS011;55434;39.570;2.652;2022-09-09T16:56:17;7.63;;;3.45;;
68449;SDS011;55434;39.570;2.652;2022-09-09T16:58:54;8.82;;;4.25;;
68449;SDS011;55434;39.570;2.652;2022-09-09T17:01:24;8.30;;;3.30;;
68449;SDS011;55434;39.570;2.652;2022-09-09T17:03:53;9.82;;;3.83;;
68449;SDS011;55434;39.570;2.652;2022-09-09T17:06:22;9.38;;;2.97;;
68449;SDS011;55434;39.570;2.652;2022-09-09T17:08:57;14.20;;;3.67;;
68449;SDS011;55434;39.570;2.652;2022-09-09T17:11:25;11.27;;;3.50;;
68449;SDS011;55434;39.570;2.652;2022-09-09T17:13:54;9.10;;;3.70;;
68449;SDS011;55434;39.570;2.652;2022-09-09T17:16:20;7.72;;;2.70;;
68449;SDS011;55434;39.570;2.652;2022-09-09T17:18:48;10.15;;;3.08;;
68449;SDS011;55434;39.570;2.652;2022-09-09T17:21:16;10.65;;;3.20;;
68449;SDS011;55434;39.570;2.652;2022-09-09T17:23:43;11.75;;;3.22;;
68449;SDS011;55434;39.570;2.652;2022-09-09T17:26:11;9.77;;;3.03;;
68449;SDS011;55434;39.570;2.652;2022-09-09T17:28:43;8.23;;;2.97;;